createdAt,value
2024-04-15T00:01:32.337Z,99948.84
2024-04-15T00:03:59.220Z,99950.22
2024-04-15T00:06:26.058Z,99956.44
2024-04-15T00:08:53.895Z,99946.59
2024-04-15T00:11:21.068Z,99955.06
2024-04-15T00:13:47.873Z,99953.66
2024-04-15T00:16:14.919Z,99963.78
2024-04-15T00:18:42.056Z,99958.41
2024-04-15T00:21:12.205Z,99947.47
2024-04-15T00:23:39.316Z,99961.88
2024-04-15T00:26:06.323Z,99966.56
2024-04-15T00:28:33.532Z,99979.81
2024-04-15T00:31:00.915Z,99988.63
2024-04-15T00:33:28.104Z,99992.06
2024-04-15T00:35:55.561Z,99978.03
2024-04-15T00:38:22.847Z,99988.66
2024-04-15T00:40:49.791Z,99978.81
2024-04-15T00:43:17.087Z,99971.75
2024-04-15T00:45:44.515Z,99972.59
2024-04-15T00:48:16.734Z,99984.66
2024-04-15T00:50:46.731Z,99977.66
2024-04-15T00:53:16.486Z,99986.31
2024-04-15T00:55:48.411Z,99995.03
2024-04-15T00:58:17.340Z,99993.59
2024-04-15T01:00:45.413Z,99993.41
2024-04-15T01:03:14.037Z,99992.09
2024-04-15T01:05:41.100Z,100001.00
2024-04-15T01:08:08.965Z,99988.34
2024-04-15T01:10:46.398Z,99997.59
2024-04-15T01:13:22.264Z,100006.38
2024-04-15T01:15:56.210Z,100011.16
2024-04-15T01:18:23.234Z,100014.44
2024-04-15T01:20:51.634Z,100026.69
2024-04-15T01:23:23.538Z,100019.34
2024-04-15T01:25:51.303Z,100016.47
2024-04-15T01:28:21.262Z,100023.38
2024-04-15T01:30:49.342Z,100021.25
2024-04-15T01:33:16.792Z,100027.00
2024-04-15T01:35:43.654Z,100029.09
2024-04-15T01:38:10.563Z,100044.47
2024-04-15T01:40:37.588Z,100043.47
2024-04-15T01:43:04.684Z,100046.94
2024-04-15T01:45:31.791Z,100032.75
2024-04-15T01:47:59.463Z,100045.22
2024-04-15T01:50:26.491Z,100037.06
2024-04-15T01:52:53.611Z,100037.00
2024-04-15T01:55:20.560Z,100036.19
2024-04-15T01:57:47.371Z,100046.88
2024-04-15T02:00:14.460Z,100030.81
2024-04-15T02:02:41.611Z,100040.28
2024-04-15T02:05:09.165Z,100029.81
2024-04-15T02:07:37.661Z,100035.78
2024-04-15T02:10:07.055Z,100032.88
2024-04-15T02:12:34.133Z,100026.81
2024-04-15T02:15:01.153Z,100025.78
2024-04-15T02:17:28.212Z,100033.28
2024-04-15T02:19:55.220Z,100039.59
2024-04-15T02:22:22.234Z,100048.13
2024-04-15T02:24:49.101Z,100037.81
2024-04-15T02:27:15.906Z,100048.00
2024-04-15T02:29:42.782Z,100047.72
2024-04-15T02:32:09.814Z,100054.53
2024-04-15T02:34:36.798Z,100055.97
2024-04-15T02:37:03.824Z,100058.91
2024-04-15T02:39:30.722Z,100057.91
2024-04-15T02:41:57.462Z,100067.91
2024-04-15T02:44:24.469Z,100055.47
2024-04-15T02:46:51.500Z,100056.63
2024-04-15T02:49:18.332Z,100061.75
2024-04-15T02:51:45.224Z,100067.41
2024-04-15T02:54:12.194Z,100070.44
2024-04-15T02:56:39.170Z,100063.94
2024-04-15T02:59:05.971Z,100078.31
2024-04-15T03:01:32.892Z,100075.78
2024-04-15T03:04:00.143Z,100076.81
2024-04-15T03:06:27.256Z,100071.38
2024-04-15T03:08:54.225Z,100074.47
2024-04-15T03:11:21.072Z,100069.31
2024-04-15T03:13:48.494Z,100068.31
2024-04-15T03:16:20.120Z,100080.00
2024-04-15T03:18:53.175Z,100088.84
2024-04-15T03:21:20.082Z,100092.09
2024-04-15T03:23:47.457Z,100098.47
2024-04-15T03:26:14.350Z,100097.28
2024-04-15T03:28:41.235Z,100111.72
2024-04-15T03:31:08.302Z,100103.28
2024-04-15T03:33:36.030Z,100102.97
2024-04-15T03:36:03.177Z,100112.16
2024-04-15T03:38:29.993Z,100107.84
2024-04-15T03:40:56.821Z,100121.69
2024-04-15T03:43:23.684Z,100120.16
2024-04-15T03:45:50.518Z,100129.84
2024-04-15T03:48:17.543Z,100127.56
2024-04-15T03:50:44.574Z,100126.41
2024-04-15T03:53:11.703Z,100131.84
2024-04-15T03:55:38.796Z,100128.84
2024-04-15T03:58:05.741Z,100121.28
2024-04-15T04:00:32.633Z,100124.66
2024-04-15T04:02:59.491Z,100129.47
2024-04-15T04:05:26.283Z,100136.88
2024-04-15T04:07:53.346Z,100136.72
2024-04-15T04:10:21.274Z,100143.72
2024-04-15T04:12:48.340Z,100153.25
2024-04-15T04:15:15.635Z,100156.72
2024-04-15T04:17:45.337Z,100159.16
2024-04-15T04:20:13.128Z,100169.66
2024-04-15T04:22:40.102Z,100167.41
2024-04-15T04:25:07.195Z,100159.28
2024-04-15T04:27:34.334Z,100152.63
2024-04-15T04:30:01.440Z,100162.28
2024-04-15T04:32:28.342Z,100162.09
2024-04-15T04:34:55.893Z,100163.13
2024-04-15T04:37:24.944Z,100162.03
2024-04-15T04:39:52.373Z,100165.19
2024-04-15T04:42:19.188Z,100181.03
2024-04-15T04:44:46.010Z,100169.47
2024-04-15T04:47:13.167Z,100170.66
2024-04-15T04:49:40.051Z,100181.13
2024-04-15T04:52:07.214Z,100185.97
2024-04-15T04:54:34.063Z,100178.22
2024-04-15T04:57:01.044Z,100179.50
2024-04-15T04:59:28.087Z,100198.31
2024-04-15T05:01:55.006Z,100186.97
2024-04-15T05:04:22.161Z,100190.44
2024-04-15T05:06:48.998Z,100196.06
2024-04-15T05:09:15.918Z,100187.22
2024-04-15T05:11:42.793Z,100188.72
2024-04-15T05:14:09.624Z,100193.28
2024-04-15T05:16:37.515Z,100194.63
2024-04-15T05:19:04.422Z,100187.19
2024-04-15T05:21:33.255Z,100190.13
2024-04-15T05:24:00.511Z,100182.53
2024-04-15T05:26:27.476Z,100194.00
2024-04-15T05:28:54.312Z,100194.03
2024-04-15T05:31:21.348Z,100194.66
2024-04-15T05:33:48.869Z,100200.44
2024-04-15T05:36:15.833Z,100186.81
2024-04-15T05:38:42.700Z,100186.97
2024-04-15T05:41:10.101Z,100192.00
2024-04-15T05:43:36.922Z,100187.31
2024-04-15T05:46:06.712Z,100188.66
2024-04-15T05:48:33.929Z,100188.69
2024-04-15T05:51:00.842Z,100183.00
2024-04-15T05:53:27.948Z,100179.16
2024-04-15T05:55:54.894Z,100184.59
2024-04-15T05:58:22.276Z,100179.47
2024-04-15T06:00:50.058Z,100184.84
2024-04-15T06:03:17.114Z,100172.06
2024-04-15T06:05:43.931Z,100186.22
2024-04-15T06:08:11.834Z,100178.47
2024-04-15T06:10:38.976Z,100181.81
2024-04-15T06:13:06.004Z,100173.72
2024-04-15T06:15:38.724Z,100167.22
2024-04-15T06:18:08.961Z,100170.25
2024-04-15T06:20:36.011Z,100175.72
2024-04-15T06:23:03.073Z,100178.16
2024-04-15T06:25:29.960Z,100189.44
2024-04-15T06:27:56.969Z,100192.69
2024-04-15T06:30:23.872Z,100193.03
2024-04-15T06:32:51.432Z,100193.97
2024-04-15T06:35:18.347Z,100192.78
2024-04-15T06:37:45.332Z,100176.31
2024-04-15T06:40:12.205Z,100168.53
2024-04-15T06:42:39.394Z,100171.56
2024-04-15T06:45:06.500Z,100158.00
2024-04-15T06:47:33.331Z,100165.75
2024-04-15T06:50:00.257Z,100170.50
2024-04-15T06:52:27.706Z,100161.59
2024-04-15T06:54:55.486Z,100169.38
2024-04-15T06:57:22.475Z,100178.78
2024-04-15T06:59:49.626Z,100170.97
2024-04-15T07:02:21.096Z,100172.47
2024-04-15T07:04:54.890Z,100176.63
2024-04-15T07:07:27.207Z,100164.56
2024-04-15T07:09:57.526Z,100171.44
2024-04-15T07:12:25.135Z,100171.00
2024-04-15T07:14:52.081Z,100170.59
2024-04-15T07:17:18.926Z,100161.69
2024-04-15T07:19:46.291Z,100161.38
2024-04-15T07:22:13.571Z,100173.88
2024-04-15T07:24:40.543Z,100164.72
2024-04-15T07:27:07.505Z,100169.13
2024-04-15T07:29:34.294Z,100162.88
2024-04-15T07:32:01.121Z,100173.38
2024-04-15T07:34:28.156Z,100179.84
2024-04-15T07:36:55.033Z,100177.31
2024-04-15T07:39:22.217Z,100185.50
2024-04-15T07:41:49.119Z,100178.22
2024-04-15T07:44:16.179Z,100176.97
2024-04-15T07:46:43.191Z,100186.84
2024-04-15T07:49:10.162Z,100204.16
2024-04-15T07:51:37.222Z,100196.78
2024-04-15T07:54:04.364Z,100196.03
2024-04-15T07:56:31.312Z,100193.69
2024-04-15T07:58:58.268Z,100195.38
2024-04-15T08:01:25.497Z,100198.91
2024-04-15T08:03:52.551Z,100198.13
2024-04-15T08:06:19.405Z,100204.97
2024-04-15T08:08:46.603Z,100208.25
2024-04-15T08:11:13.786Z,100217.06
2024-04-15T08:13:40.931Z,100202.75
2024-04-15T08:16:07.977Z,100195.31
2024-04-15T08:18:34.899Z,100196.22
2024-04-15T08:21:01.714Z,100188.75
2024-04-15T08:23:28.585Z,100176.19
2024-04-15T08:25:57.286Z,100180.00
2024-04-15T08:28:25.140Z,100161.13
2024-04-15T08:30:52.293Z,100161.28
2024-04-15T08:33:19.321Z,100176.88
2024-04-15T08:35:46.224Z,100159.94
2024-04-15T08:38:13.273Z,100169.19
2024-04-15T08:40:47.154Z,100168.34
2024-04-15T08:43:18.082Z,100159.19
2024-04-15T08:45:46.601Z,100156.16
2024-04-15T08:48:15.120Z,100150.53
2024-04-15T08:50:41.997Z,100151.41
2024-04-15T08:53:08.884Z,100154.91
2024-04-15T08:55:35.828Z,100155.38
2024-04-15T08:58:03.159Z,100145.78
2024-04-15T09:00:31.267Z,100142.78
2024-04-15T09:02:59.057Z,100134.16
2024-04-15T09:05:26.056Z,100132.16
2024-04-15T09:07:53.217Z,100119.19
2024-04-15T09:10:20.665Z,100113.47
2024-04-15T09:12:49.217Z,100113.47
2024-04-15T09:15:17.206Z,100111.06
2024-04-15T09:17:44.404Z,100108.19
2024-04-15T09:20:11.974Z,100110.31
2024-04-15T09:22:39.239Z,100101.53
2024-04-15T09:25:06.961Z,100094.16
2024-04-15T09:27:34.296Z,100096.25
2024-04-15T09:30:04.291Z,100092.22
2024-04-15T09:32:31.891Z,100087.59
2024-04-15T09:35:01.066Z,100089.91
2024-04-15T09:37:28.759Z,100096.69
2024-04-15T09:39:56.382Z,100085.13
2024-04-15T09:42:23.443Z,100081.50
2024-04-15T09:44:50.826Z,100087.53
2024-04-15T09:47:19.561Z,100088.84
2024-04-15T09:49:48.391Z,100077.19
2024-04-15T09:52:24.101Z,100072.44
2024-04-15T09:54:56.543Z,100063.66
2024-04-15T09:57:27.595Z,100077.34
2024-04-15T09:59:58.943Z,100062.88
2024-04-15T10:02:28.942Z,100055.97
2024-04-15T10:05:19.213Z,100056.41
2024-04-15T10:07:51.375Z,100039.00
2024-04-15T10:10:21.062Z,100030.13
2024-04-15T10:12:52.652Z,100019.09
2024-04-15T10:15:20.888Z,100022.19
2024-04-15T10:18:16.330Z,100006.78
2024-04-15T10:20:45.050Z,100004.56
2024-04-15T10:23:15.802Z,99986.25
2024-04-15T10:25:43.873Z,99983.00
2024-04-15T10:28:12.938Z,99981.00
2024-04-15T10:30:41.888Z,99965.22
2024-04-15T10:33:15.005Z,99951.91
2024-04-15T10:35:42.162Z,99941.63
2024-04-15T10:38:10.588Z,99949.97
2024-04-15T10:40:40.306Z,99954.16
2024-04-15T10:43:07.862Z,99948.19
2024-04-15T10:45:35.214Z,99932.16
2024-04-15T10:48:02.781Z,99942.22
2024-04-15T10:50:29.791Z,99915.94
2024-04-15T10:52:56.898Z,99918.00
2024-04-15T10:55:24.208Z,99921.44
2024-04-15T10:57:51.723Z,99915.59
2024-04-15T11:00:22.880Z,99889.91
2024-04-15T11:02:54.015Z,99901.28
2024-04-15T11:05:22.995Z,99899.09
2024-04-15T11:07:52.796Z,99885.91
2024-04-15T11:10:19.955Z,99872.50
2024-04-15T11:12:52.847Z,99865.47
2024-04-15T11:15:20.267Z,99867.16
2024-04-15T11:17:48.306Z,99856.50
2024-04-15T11:20:16.529Z,99849.16
2024-04-15T11:22:43.751Z,99852.34
2024-04-15T11:25:13.681Z,99860.31
2024-04-15T11:27:58.843Z,99839.63
2024-04-15T11:30:30.471Z,99813.50
2024-04-15T11:32:59.686Z,99798.47
2024-04-15T11:35:27.011Z,99793.41
2024-04-15T11:37:55.440Z,99807.53
2024-04-15T11:40:24.351Z,99833.44
2024-04-15T11:42:53.187Z,99857.06
2024-04-15T11:45:20.336Z,99861.97
2024-04-15T11:47:55.998Z,99881.47
2024-04-15T11:50:23.286Z,99887.25
2024-04-15T11:52:50.437Z,99887.06
2024-04-15T11:55:22.756Z,99898.25
2024-04-15T11:57:50.696Z,99900.19
2024-04-15T12:00:17.630Z,99909.53
2024-04-15T12:02:46.283Z,99903.91
2024-04-15T12:05:14.465Z,99899.97
2024-04-15T12:07:42.751Z,99893.81
2024-04-15T12:10:10.210Z,99878.31
2024-04-15T12:12:37.018Z,99853.78
2024-04-15T12:15:06.057Z,99848.53
2024-04-15T12:17:34.347Z,99828.06
2024-04-15T12:20:04.127Z,99806.97
2024-04-15T12:22:31.424Z,99796.16
2024-04-15T12:25:07.734Z,99796.88
2024-04-15T12:27:39.125Z,99788.88
2024-04-15T12:30:08.465Z,99788.09
2024-04-15T12:32:35.875Z,99792.41
2024-04-15T12:35:02.805Z,99784.47
2024-04-15T12:37:29.873Z,99782.59
2024-04-15T12:39:56.769Z,99792.63
2024-04-15T12:42:23.646Z,99788.75
2024-04-15T12:44:50.587Z,99776.53
2024-04-15T12:47:17.606Z,99762.81
2024-04-15T12:49:44.663Z,99751.22
2024-04-15T12:52:11.698Z,99732.63
2024-04-15T12:54:38.502Z,99732.72
2024-04-15T12:57:05.542Z,99712.28
2024-04-15T12:59:32.503Z,99705.75
2024-04-15T13:02:07.092Z,99682.84
2024-04-15T13:04:36.684Z,99688.13
2024-04-15T13:07:04.391Z,99695.91
2024-04-15T13:09:31.467Z,99691.09
2024-04-15T13:11:58.383Z,99703.97
2024-04-15T13:14:25.225Z,99699.25
2024-04-15T13:16:52.174Z,99693.09
2024-04-15T13:19:19.303Z,99685.31
2024-04-15T13:21:46.374Z,99679.97
2024-04-15T13:24:13.455Z,99666.09
2024-04-15T13:26:40.453Z,99669.31
2024-04-15T13:29:07.393Z,99651.53
2024-04-15T13:31:34.263Z,99647.66
2024-04-15T13:34:01.945Z,99651.66
2024-04-15T13:36:29.218Z,99651.44
2024-04-15T13:38:56.442Z,99651.63
2024-04-15T13:41:23.512Z,99651.44
2024-04-15T13:43:50.484Z,99642.91
2024-04-15T13:46:17.535Z,99632.28
2024-04-15T13:48:44.587Z,99618.16
2024-04-15T13:51:11.384Z,99612.56
2024-04-15T13:53:38.224Z,99610.44
2024-04-15T13:56:05.473Z,99598.28
2024-04-15T13:58:32.546Z,99593.88
2024-04-15T14:01:00.097Z,99593.81
2024-04-15T14:03:27.136Z,99592.56
2024-04-15T14:05:54.405Z,99587.94
2024-04-15T14:08:21.942Z,99590.13
2024-04-15T14:10:49.881Z,99596.06
2024-04-15T14:13:18.466Z,99602.41
2024-04-15T14:15:45.558Z,99624.22
2024-04-15T14:18:12.508Z,99643.41
2024-04-15T14:20:39.453Z,99663.47
2024-04-15T14:23:06.736Z,99688.56
2024-04-15T14:25:33.829Z,99698.13
2024-04-15T14:28:01.033Z,99688.56
2024-04-15T14:30:27.935Z,99684.53
2024-04-15T14:32:55.021Z,99693.63
2024-04-15T14:35:22.112Z,99733.59
2024-04-15T14:37:50.970Z,99745.59
2024-04-15T14:40:23.175Z,99777.69
2024-04-15T14:42:52.023Z,99770.50
2024-04-15T14:45:19.099Z,99747.31
2024-04-15T14:47:46.911Z,99788.56
2024-04-15T14:50:14.468Z,99816.22
2024-04-15T14:52:41.534Z,99790.81
2024-04-15T14:55:09.555Z,99777.41
2024-04-15T14:57:36.582Z,99757.94
2024-04-15T15:00:05.725Z,99756.41
2024-04-15T15:02:32.681Z,99756.59
2024-04-15T15:04:59.588Z,99758.16
2024-04-15T15:07:27.088Z,99741.88
2024-04-15T15:09:54.168Z,99728.28
2024-04-15T15:12:21.619Z,99751.03
2024-04-15T15:14:49.833Z,99784.22
2024-04-15T15:17:16.662Z,99777.50
2024-04-15T15:19:44.643Z,99775.22
2024-04-15T15:22:14.303Z,99762.31
2024-04-15T15:24:41.445Z,99729.38
2024-04-15T15:27:08.822Z,99716.84
2024-04-15T15:29:36.007Z,99702.28
2024-04-15T15:32:03.073Z,99694.88
2024-04-15T15:34:30.022Z,99677.88
2024-04-15T15:36:59.854Z,99680.78
2024-04-15T15:39:26.704Z,99675.44
2024-04-15T15:41:53.956Z,99662.78
2024-04-15T15:44:20.785Z,99654.81
2024-04-15T15:46:47.650Z,99664.34
2024-04-15T15:49:14.495Z,99641.78
2024-04-15T15:51:42.442Z,99654.00
2024-04-15T15:54:09.877Z,99640.00
2024-04-15T15:56:39.288Z,99645.84
2024-04-15T15:59:06.702Z,99641.34
2024-04-15T16:01:35.079Z,99648.47
2024-04-15T16:04:02.129Z,99649.66
2024-04-15T16:06:29.121Z,99651.25
2024-04-15T16:08:56.361Z,99656.28
2024-04-15T16:11:31.480Z,99653.25
2024-04-15T16:14:10.585Z,99648.09
2024-04-15T16:16:37.909Z,99653.63
2024-04-15T16:19:07.025Z,99659.91
2024-04-15T16:21:34.221Z,99647.06
2024-04-15T16:24:01.012Z,99668.72
2024-04-15T16:26:27.830Z,99622.81
2024-04-15T16:28:54.731Z,99628.66
2024-04-15T16:31:21.850Z,99629.47
2024-04-15T16:33:48.861Z,99630.66
2024-04-15T16:36:15.942Z,99628.78
2024-04-15T16:38:42.724Z,99641.28
2024-04-15T16:41:09.673Z,99636.84
2024-04-15T16:43:36.484Z,99653.19
2024-04-15T16:46:03.439Z,99635.72
2024-04-15T16:48:30.805Z,99635.09
2024-04-15T16:50:57.674Z,99622.13
2024-04-15T16:53:24.511Z,99622.81
2024-04-15T16:55:52.813Z,99629.94
2024-04-15T16:58:21.749Z,99654.03
2024-04-15T17:00:49.811Z,99674.16
2024-04-15T17:03:16.854Z,99663.63
2024-04-15T17:05:45.233Z,99655.44
2024-04-15T17:08:12.534Z,99663.00
2024-04-15T17:10:39.514Z,99684.97
2024-04-15T17:13:07.115Z,99677.91
2024-04-15T17:15:34.398Z,99701.84
2024-04-15T17:18:04.252Z,99720.72
2024-04-15T17:20:31.744Z,99738.44
2024-04-15T17:22:58.984Z,99771.50
2024-04-15T17:25:25.942Z,99769.53
2024-04-15T17:27:53.035Z,99768.06
2024-04-15T17:30:20.209Z,99757.09
2024-04-15T17:32:47.153Z,99761.47
2024-04-15T17:35:14.080Z,99771.00
2024-04-15T17:37:42.265Z,99804.13
2024-04-15T17:40:10.259Z,99815.09
2024-04-15T17:42:37.132Z,99803.78
2024-04-15T17:45:04.586Z,99789.72
2024-04-15T17:47:31.634Z,99826.84
2024-04-15T17:49:58.874Z,99794.03
2024-04-15T17:52:26.018Z,99770.78
2024-04-15T17:54:53.117Z,99772.56
2024-04-15T17:57:20.474Z,99776.63
2024-04-15T17:59:47.331Z,99752.50
2024-04-15T18:02:14.297Z,99775.69
2024-04-15T18:04:41.272Z,99719.88
2024-04-15T18:07:11.219Z,99800.19
2024-04-15T18:09:39.664Z,99754.94
2024-04-15T18:12:08.735Z,99723.91
2024-04-15T18:14:35.964Z,99729.19
2024-04-15T18:17:03.513Z,99714.22
2024-04-15T18:19:30.751Z,99706.06
2024-04-15T18:21:57.655Z,99705.53
2024-04-15T18:24:28.698Z,99719.06
2024-04-15T18:26:56.015Z,99717.97
2024-04-15T18:29:22.899Z,99705.19
2024-04-15T18:31:49.919Z,99675.44
2024-04-15T18:34:16.910Z,99673.28
2024-04-15T18:36:45.908Z,99690.88
2024-04-15T18:39:13.273Z,99689.00
2024-04-15T18:41:40.283Z,99692.34
2024-04-15T18:44:07.236Z,99688.63
2024-04-15T18:46:34.966Z,99687.50
2024-04-15T18:49:02.122Z,99674.44
2024-04-15T18:51:29.145Z,99668.72
2024-04-15T18:53:57.356Z,99674.72
2024-04-15T18:56:25.091Z,99669.34
2024-04-15T18:58:52.368Z,99677.69
2024-04-15T19:01:19.362Z,99682.69
2024-04-15T19:03:46.438Z,99666.47
2024-04-15T19:06:13.629Z,99662.97
2024-04-15T19:08:40.602Z,99651.28
2024-04-15T19:11:07.674Z,99647.84
2024-04-15T19:13:34.722Z,99635.53
2024-04-15T19:16:01.719Z,99636.13
2024-04-15T19:18:29.284Z,99635.63
2024-04-15T19:20:56.286Z,99631.72
2024-04-15T19:23:23.136Z,99631.16
2024-04-15T19:25:50.249Z,99637.88
2024-04-15T19:28:17.151Z,99645.03
2024-04-15T19:30:44.066Z,99640.34
2024-04-15T19:33:11.056Z,99635.91
2024-04-15T19:35:38.019Z,99617.88
2024-04-15T19:38:05.183Z,99633.31
2024-04-15T19:40:32.250Z,99640.69
2024-04-15T19:43:00.384Z,99636.50
2024-04-15T19:45:27.298Z,99649.16
2024-04-15T19:47:54.488Z,99638.94
2024-04-15T19:50:21.987Z,99647.47
2024-04-15T19:52:48.813Z,99663.81
2024-04-15T19:55:17.187Z,99656.06
2024-04-15T19:57:45.527Z,99678.03
2024-04-15T20:00:13.383Z,99677.84
2024-04-15T20:02:40.724Z,99676.81
2024-04-15T20:05:08.566Z,99672.13
2024-04-15T20:07:37.099Z,99679.81
2024-04-15T20:10:04.403Z,99675.72
2024-04-15T20:12:32.818Z,99678.72
2024-04-15T20:15:02.645Z,99665.09
2024-04-15T20:17:44.179Z,99671.66
2024-04-15T20:20:16.171Z,99682.09
2024-04-15T20:22:43.793Z,99678.91
2024-04-15T20:25:11.922Z,99681.72
2024-04-15T20:27:38.941Z,99673.56
2024-04-15T20:30:06.894Z,99673.03
2024-04-15T20:32:34.427Z,99665.84
2024-04-15T20:35:01.815Z,99660.13
2024-04-15T20:37:29.079Z,99662.09
2024-04-15T20:39:56.260Z,99671.44
2024-04-15T20:42:23.590Z,99666.34
2024-04-15T20:44:52.233Z,99658.84
2024-04-15T20:47:20.367Z,99661.72
2024-04-15T20:49:47.243Z,99670.97
2024-04-15T20:52:14.193Z,99668.28
2024-04-15T20:54:41.097Z,99670.91
2024-04-15T20:57:09.277Z,99671.41
2024-04-15T20:59:36.181Z,99680.63
2024-04-15T21:02:03.270Z,99668.78
2024-04-15T21:04:30.270Z,99661.16
2024-04-15T21:06:57.355Z,99650.78
2024-04-15T21:09:24.250Z,99637.16
2024-04-15T21:11:51.254Z,99642.28
2024-04-15T21:14:18.091Z,99628.84
2024-04-15T21:16:46.216Z,99631.88
2024-04-15T21:19:13.323Z,99628.84
2024-04-15T21:21:40.463Z,99624.03
2024-04-15T21:24:07.840Z,99619.41
2024-04-15T21:26:34.755Z,99616.44
2024-04-15T21:29:02.123Z,99609.00
2024-04-15T21:31:29.180Z,99605.13
2024-04-15T21:33:56.243Z,99605.03
2024-04-15T21:36:23.257Z,99593.41
2024-04-15T21:38:51.697Z,99579.53
2024-04-15T21:41:18.602Z,99580.00
2024-04-15T21:43:45.494Z,99576.69
2024-04-15T21:46:12.719Z,99580.44
2024-04-15T21:48:39.686Z,99576.63
2024-04-15T21:51:06.664Z,99570.50
2024-04-15T21:53:33.551Z,99567.75
2024-04-15T21:56:00.405Z,99560.00
2024-04-15T21:58:27.324Z,99565.69
2024-04-15T22:00:54.642Z,99558.53
2024-04-15T22:03:21.530Z,99558.03
2024-04-15T22:05:49.162Z,99551.91
2024-04-15T22:08:16.363Z,99552.00
2024-04-15T22:10:43.781Z,99542.00
2024-04-15T22:13:11.474Z,99535.78
2024-04-15T22:15:38.628Z,99534.50
2024-04-15T22:18:08.345Z,99537.84
2024-04-15T22:20:35.562Z,99538.13
2024-04-15T22:23:02.932Z,99540.47
2024-04-15T22:25:30.241Z,99534.50
2024-04-15T22:27:57.266Z,99532.72
2024-04-15T22:30:24.372Z,99537.78
2024-04-15T22:32:51.359Z,99534.03
2024-04-15T22:35:18.682Z,99530.56
2024-04-15T22:37:45.809Z,99519.09
2024-04-15T22:40:12.787Z,99520.56
2024-04-15T22:42:39.800Z,99511.13
2024-04-15T22:45:07.569Z,99493.41
2024-04-15T22:47:34.898Z,99503.59
2024-04-15T22:50:02.081Z,99509.78
2024-04-15T22:52:29.001Z,99503.78
2024-04-15T22:54:56.011Z,99499.84
2024-04-15T22:57:22.956Z,99487.47
2024-04-15T22:59:50.308Z,99490.78
2024-04-15T23:02:17.541Z,99485.16
2024-04-15T23:04:44.763Z,99479.66
2024-04-15T23:07:11.669Z,99484.19
2024-04-15T23:09:38.746Z,99477.09
2024-04-15T23:12:05.736Z,99470.53
2024-04-15T23:14:33.196Z,99465.75
2024-04-15T23:17:00.164Z,99467.84
2024-04-15T23:19:27.133Z,99459.50
2024-04-15T23:21:54.001Z,99445.03
2024-04-15T23:24:20.915Z,99445.94
2024-04-15T23:26:47.873Z,99452.38
2024-04-15T23:29:14.722Z,99461.06
2024-04-15T23:31:41.616Z,99458.88
2024-04-15T23:34:08.549Z,99472.69
2024-04-15T23:36:42.307Z,99483.19
2024-04-15T23:39:09.328Z,99490.91
2024-04-15T23:41:36.287Z,99481.00
2024-04-15T23:44:03.208Z,99481.06
2024-04-15T23:46:30.113Z,99473.75
2024-04-15T23:48:57.110Z,99481.97
2024-04-15T23:51:23.930Z,99497.00
2024-04-15T23:53:51.054Z,99510.97
2024-04-15T23:56:17.860Z,99517.81
2024-04-15T23:58:45.313Z,99511.31
